Time;durP1;ratioP1;P1;durP2;ratioP2;P2;SDS_P1;SDS_P2;PMS_P1;PMS_P2;Temp;Humidity;BMP_temperature;BMP_pressure;BME280_temperature;BME280_humidity;BME280_pressure;Samples;Min_cycle;Max_cycle;Signal;HPM_P1;HPM_P2
2021/08/09 00:01:23;;;;;;;6.00;2.37;;;14.70;99.90;;;;;;5091722;28;20731;-78
2021/08/09 00:03:49;;;;;;;3.45;2.13;;;14.70;99.90;;;;;;5073710;28;20427;-81
2021/08/09 00:06:15;;;;;;;3.80;2.00;;;14.60;99.90;;;;;;5092606;28;20360;-81
2021/08/09 00:08:40;;;;;;;3.60;2.03;;;14.50;99.90;;;;;;5092065;28;20431;-81
2021/08/09 00:11:06;;;;;;;2.35;2.10;;;14.60;99.90;;;;;;5092402;28;20372;-80
2021/08/09 00:13:31;;;;;;;6.50;2.47;;;14.50;99.90;;;;;;5091391;28;20431;-82
2021/08/09 00:15:58;;;;;;;7.57;2.45;;;14.50;99.90;;;;;;5091826;28;20408;-79
2021/08/09 00:18:25;;;;;;;3.88;2.20;;;14.40;99.90;;;;;;5074463;28;20376;-81
2021/08/09 00:20:52;;;;;;;3.75;2.10;;;14.40;99.90;;;;;;5091157;28;20392;-82
2021/08/09 00:23:19;;;;;;;2.77;2.17;;;14.30;99.90;;;;;;5091153;28;20889;-82
2021/08/09 00:25:44;;;;;;;4.25;2.20;;;14.30;99.90;;;;;;5073889;28;20455;-80
2021/08/09 00:28:10;;;;;;;4.63;2.50;;;14.40;99.90;;;;;;5092729;28;20511;-77
2021/08/09 00:30:35;;;;;;;3.70;2.37;;;14.30;99.90;;;;;;5075696;28;20393;-82
2021/08/09 00:33:01;;;;;;;2.73;2.20;;;14.30;99.90;;;;;;5075436;28;20453;-79
2021/08/09 00:35:27;;;;;;;3.13;2.20;;;14.30;99.90;;;;;;5075752;28;20395;-78
2021/08/09 00:37:52;;;;;;;3.33;2.40;;;14.30;99.90;;;;;;5096868;28;20453;-78
2021/08/09 00:40:18;;;;;;;3.87;2.33;;;14.20;99.90;;;;;;5091602;28;20381;-79
2021/08/09 00:42:43;;;;;;;5.60;2.88;;;14.10;99.90;;;;;;5090444;28;20463;-82
2021/08/09 00:45:09;;;;;;;2.60;2.10;;;14.10;99.90;;;;;;5091797;28;20479;-80
2021/08/09 00:47:35;;;;;;;3.30;2.45;;;14.00;99.90;;;;;;5092914;28;20478;-80
2021/08/09 00:50:00;;;;;;;4.13;2.55;;;14.00;99.90;;;;;;5091925;28;20373;-78
2021/08/09 00:52:26;;;;;;;3.50;2.40;;;14.00;99.90;;;;;;5091692;28;20400;-77
2021/08/09 00:54:52;;;;;;;3.88;2.50;;;14.00;99.90;;;;;;5092551;28;20380;-79
2021/08/09 00:57:18;;;;;;;3.58;2.45;;;14.00;99.90;;;;;;5074114;28;20846;-78
2021/08/09 00:59:44;;;;;;;3.90;2.47;;;13.90;99.90;;;;;;5091554;28;20379;-78
2021/08/09 01:02:09;;;;;;;6.77;2.50;;;13.90;99.90;;;;;;5092032;28;20369;-80
2021/08/09 01:04:35;;;;;;;3.45;2.75;;;13.80;99.90;;;;;;5091294;28;20469;-77
2021/08/09 01:07:01;;;;;;;2.83;2.58;;;13.80;99.90;;;;;;5092789;28;20372;-79
2021/08/09 01:09:33;;;;;;;3.35;2.70;;;13.70;99.90;;;;;;5073042;28;20368;-81
2021/08/09 01:12:12;;;;;;;3.53;2.42;;;13.70;99.90;;;;;;5092350;28;20370;-81
2021/08/09 01:14:59;;;;;;;2.60;2.40;;;13.60;99.90;;;;;;5091976;28;20375;-78
2021/08/09 01:17:31;;;;;;;2.80;2.50;;;13.60;99.90;;;;;;5092158;28;20501;-78
2021/08/09 01:20:15;;;;;;;4.50;2.55;;;13.60;99.90;;;;;;5091238;28;20410;-77
2021/08/09 01:23:29;;;;;;;4.28;2.58;;;13.50;99.90;;;;;;5072352;28;20424;-80
2021/08/09 01:26:23;;;;;;;3.65;3.10;;;13.50;99.90;;;;;;5091173;28;20384;-79
2021/08/09 01:28:49;;;;;;;4.85;2.70;;;13.50;99.90;;;;;;5091247;28;20375;-81
2021/08/09 01:31:17;;;;;;;3.72;2.55;;;13.40;99.90;;;;;;5072763;28;20377;-78
2021/08/09 01:33:44;;;;;;;4.53;3.00;;;13.40;99.90;;;;;;5091278;28;20393;-78
2021/08/09 01:36:11;;;;;;;3.35;2.92;;;13.40;99.90;;;;;;5092088;28;20371;-79
2021/08/09 01:38:37;;;;;;;4.32;3.00;;;13.40;99.90;;;;;;5072413;28;20973;-79
2021/08/09 01:41:04;;;;;;;5.80;2.80;;;13.30;99.90;;;;;;5091241;28;20380;-81
2021/08/09 01:43:31;;;;;;;4.30;3.00;;;13.30;99.90;;;;;;5073262;28;20377;-78
2021/08/09 01:45:59;;;;;;;4.68;3.20;;;13.30;99.90;;;;;;5072214;28;20463;-81
2021/08/09 01:48:27;;;;;;;4.88;2.97;;;13.30;99.90;;;;;;5072521;28;20376;-82
2021/08/09 01:50:53;;;;;;;5.00;3.30;;;13.20;99.90;;;;;;5072012;28;20401;-80
2021/08/09 01:53:19;;;;;;;3.38;3.05;;;13.20;99.90;;;;;;5090279;28;20399;-79
2021/08/09 01:55:46;;;;;;;6.20;3.67;;;13.20;99.90;;;;;;5089893;28;20754;-78
2021/08/09 01:58:11;;;;;;;3.42;3.00;;;13.20;99.90;;;;;;5071696;28;20408;-81
2021/08/09 02:00:37;;;;;;;4.78;3.00;;;13.20;99.90;;;;;;5090354;28;20387;-80
2021/08/09 02:03:03;;;;;;;3.67;3.00;;;13.10;99.90;;;;;;5072966;28;20385;-80
2021/08/09 02:05:29;;;;;;;3.23;2.90;;;13.10;99.90;;;;;;5090551;28;20376;-79
2021/08/09 02:07:55;;;;;;;5.10;2.90;;;13.10;99.90;;;;;;5089847;28;20379;-79
2021/08/09 02:10:24;;;;;;;4.63;3.30;;;13.10;99.90;;;;;;5071935;28;20372;-79
2021/08/09 02:13:10;;;;;;;4.05;3.28;;;13.10;99.90;;;;;;5089842;28;20396;-78
2021/08/09 02:15:38;;;;;;;4.77;3.00;;;13.00;99.90;;;;;;5090515;28;20368;-79
2021/08/09 02:18:23;;;;;;;4.35;3.17;;;13.00;99.90;;;;;;5070986;28;20874;-81
2021/08/09 02:20:51;;;;;;;5.05;3.30;;;13.00;99.90;;;;;;5086113;28;20407;-79
2021/08/09 02:23:20;;;;;;;6.18;3.70;;;13.00;99.90;;;;;;5072487;28;20743;-81
2021/08/09 02:25:49;;;;;;;4.32;3.20;;;13.00;99.90;;;;;;5091749;28;20392;-78
2021/08/09 02:28:18;;;;;;;5.45;3.35;;;12.90;99.90;;;;;;5072469;28;20412;-80
2021/08/09 02:30:53;;;;;;;5.88;3.17;;;12.90;99.90;;;;;;5090282;28;20373;-78
2021/08/09 02:33:22;;;;;;;4.28;3.45;;;12.90;99.90;;;;;;5072129;28;20415;-80
2021/08/09 02:35:49;;;;;;;4.53;3.70;;;12.80;99.90;;;;;;5071696;28;20541;-79
2021/08/09 02:38:14;;;;;;;5.63;3.60;;;12.80;99.90;;;;;;5090480;28;20383;-79
2021/08/09 02:40:41;;;;;;;4.03;3.47;;;12.80;99.90;;;;;;5090796;28;20372;-80
2021/08/09 02:43:07;;;;;;;5.83;3.80;;;12.70;99.90;;;;;;5072022;28;20383;-81
2021/08/09 02:45:33;;;;;;;4.38;3.88;;;12.70;99.90;;;;;;5089782;28;20372;-78
2021/08/09 02:48:00;;;;;;;5.75;4.18;;;12.60;99.90;;;;;;5089138;28;20384;-80
2021/08/09 02:50:26;;;;;;;5.22;3.60;;;12.60;99.90;;;;;;5071278;28;20727;-80
2021/08/09 02:52:52;;;;;;;4.85;4.00;;;12.60;99.90;;;;;;5089339;28;21009;-78
2021/08/09 02:55:20;;;;;;;5.35;4.10;;;12.60;99.90;;;;;;5092952;28;20381;-79
2021/08/09 02:57:47;;;;;;;3.88;3.47;;;12.50;99.90;;;;;;5094445;28;20384;-79
2021/08/09 03:00:14;;;;;;;5.70;3.70;;;12.60;99.90;;;;;;5094012;28;20451;-77
2021/08/09 03:02:42;;;;;;;5.50;3.85;;;12.50;99.90;;;;;;5094492;28;20435;-78
2021/08/09 03:05:10;;;;;;;5.47;3.67;;;12.50;99.90;;;;;;5096111;28;20361;-79
2021/08/09 03:07:37;;;;;;;4.40;3.53;;;12.50;99.90;;;;;;5076832;28;20385;-78
2021/08/09 03:10:10;;;;;;;6.25;3.83;;;12.40;99.90;;;;;;5094399;28;20493;-78
2021/08/09 03:12:36;;;;;;;4.00;3.50;;;12.40;99.90;;;;;;5078210;28;20507;-78
2021/08/09 03:15:03;;;;;;;4.88;3.67;;;12.40;99.90;;;;;;5094858;28;20388;-79
2021/08/09 03:17:29;;;;;;;4.28;3.70;;;12.40;99.90;;;;;;5095612;28;20365;-76
2021/08/09 03:19:55;;;;;;;4.93;3.60;;;12.30;99.90;;;;;;5095117;28;20449;-80
2021/08/09 03:22:21;;;;;;;6.25;3.92;;;12.40;99.90;;;;;;5094891;28;20381;-76
2021/08/09 03:24:47;;;;;;;4.93;3.80;;;12.30;99.90;;;;;;5094187;28;21052;-79
2021/08/09 03:27:12;;;;;;;6.72;3.72;;;12.30;99.90;;;;;;5093526;28;20913;-77
2021/08/09 03:29:38;;;;;;;5.65;3.58;;;12.20;99.90;;;;;;5093071;28;20383;-79
2021/08/09 03:32:04;;;;;;;5.57;3.53;;;12.20;99.90;;;;;;5094599;28;20381;-77
2021/08/09 03:34:30;;;;;;;6.23;4.03;;;12.20;99.90;;;;;;5094824;28;20933;-77
2021/08/09 03:36:55;;;;;;;5.73;4.43;;;12.20;99.90;;;;;;5093698;28;20380;-77
2021/08/09 03:39:21;;;;;;;7.35;3.90;;;12.10;99.90;;;;;;5092589;28;20404;-76
2021/08/09 03:41:47;;;;;;;4.22;3.60;;;12.10;99.90;;;;;;5092725;28;20423;-77
2021/08/09 03:44:13;;;;;;;5.32;3.97;;;12.20;99.90;;;;;;5094534;28;20863;-80
2021/08/09 03:46:39;;;;;;;5.68;3.88;;;12.20;99.90;;;;;;5093975;28;20387;-75
2021/08/09 03:49:08;;;;;;;5.45;4.22;;;12.20;99.90;;;;;;5076739;28;20372;-77
2021/08/09 03:51:38;;;;;;;5.53;4.10;;;12.20;99.90;;;;;;5076206;28;20817;-77
2021/08/09 03:54:04;;;;;;;5.70;4.50;;;12.20;99.90;;;;;;5093664;28;20894;-77
2021/08/09 03:56:30;;;;;;;7.55;4.30;;;12.20;99.90;;;;;;5093805;28;20392;-79
2021/08/09 03:58:55;;;;;;;6.10;4.23;;;12.20;99.90;;;;;;5091787;28;20422;-79
2021/08/09 04:01:21;;;;;;;5.10;4.40;;;12.20;99.90;;;;;;5093458;28;20478;-78
2021/08/09 04:03:47;;;;;;;5.18;4.47;;;12.30;99.90;;;;;;5093219;28;20401;-79
2021/08/09 04:06:12;;;;;;;6.87;3.93;;;12.40;99.90;;;;;;5091890;28;20369;-78
2021/08/09 04:08:41;;;;;;;5.55;4.15;;;12.40;99.90;;;;;;5074897;28;20789;-79
2021/08/09 04:11:06;;;;;;;6.35;4.05;;;12.50;99.90;;;;;;5075266;28;20461;-79
2021/08/09 04:13:34;;;;;;;5.28;4.53;;;12.50;99.90;;;;;;5092661;28;20487;-80
2021/08/09 04:16:00;;;;;;;7.07;4.20;;;12.60;99.90;;;;;;5075634;28;20383;-80
2021/08/09 04:18:25;;;;;;;4.97;4.00;;;12.60;99.90;;;;;;5094079;28;20377;-77
2021/08/09 04:20:51;;;;;;;4.38;3.90;;;12.60;99.90;;;;;;5094595;28;20391;-77
2021/08/09 04:23:16;;;;;;;5.70;4.23;;;12.70;99.90;;;;;;5094778;28;20376;-79
2021/08/09 04:25:42;;;;;;;5.90;4.30;;;12.70;99.90;;;;;;5095230;28;20392;-77
2021/08/09 04:28:07;;;;;;;5.03;4.30;;;12.80;99.90;;;;;;5094203;28;20379;-79
2021/08/09 04:30:33;;;;;;;6.33;4.10;;;12.80;99.90;;;;;;5095340;28;20946;-79
2021/08/09 04:33:02;;;;;;;5.22;4.20;;;12.80;99.90;;;;;;5092363;28;20408;-81
2021/08/09 04:35:28;;;;;;;4.55;4.10;;;12.90;99.90;;;;;;5095214;28;20380;-79
2021/08/09 04:37:53;;;;;;;5.57;4.33;;;12.90;99.90;;;;;;5092845;28;20372;-76
2021/08/09 04:40:19;;;;;;;5.97;4.53;;;13.00;99.90;;;;;;5095655;28;20397;-77
2021/08/09 04:42:44;;;;;;;6.50;4.35;;;13.00;99.90;;;;;;5093528;28;20455;-80
2021/08/09 04:45:10;;;;;;;5.63;4.37;;;13.10;99.90;;;;;;5093250;28;20730;-77
2021/08/09 04:47:36;;;;;;;8.13;4.18;;;13.20;99.90;;;;;;5092940;28;20380;-79
2021/08/09 04:50:01;;;;;;;4.77;3.77;;;13.30;99.90;;;;;;5093300;28;20770;-81
2021/08/09 04:52:27;;;;;;;5.50;3.60;;;13.40;99.90;;;;;;5072610;28;20424;-82
2021/08/09 04:54:53;;;;;;;5.78;3.75;;;13.50;99.90;;;;;;5072192;28;20881;-81
2021/08/09 04:57:18;;;;;;;4.60;3.47;;;13.60;99.90;;;;;;5090666;28;20862;-80
2021/08/09 04:59:44;;;;;;;5.40;3.38;;;13.70;99.90;;;;;;5090377;28;20444;-81
2021/08/09 05:02:09;;;;;;;3.63;2.90;;;13.90;99.90;;;;;;5072816;28;20376;-81
2021/08/09 05:04:35;;;;;;;4.05;3.17;;;14.00;99.90;;;;;;5089965;28;20380;-82
2021/08/09 05:07:04;;;;;;;6.40;2.80;;;14.20;99.90;;;;;;5090230;28;20808;-80
2021/08/09 05:09:31;;;;;;;3.67;3.00;;;14.40;99.90;;;;;;5073048;28;20384;-78
2021/08/09 05:11:57;;;;;;;3.67;2.67;;;14.60;99.90;;;;;;5091832;28;20454;-77
2021/08/09 05:14:23;;;;;;;4.20;2.67;;;14.90;99.90;;;;;;5089957;28;20396;-79
2021/08/09 05:16:48;;;;;;;3.88;3.30;;;15.10;99.90;;;;;;5090874;28;20441;-79
2021/08/09 05:19:14;;;;;;;7.37;2.70;;;15.20;99.90;;;;;;5089895;28;20744;-80
2021/08/09 05:21:39;;;;;;;4.15;2.60;;;15.50;99.90;;;;;;5089340;28;21202;-80
2021/08/09 05:24:06;;;;;;;3.83;2.50;;;15.80;99.90;;;;;;5088427;28;20373;-83
2021/08/09 05:26:32;;;;;;;5.90;2.65;;;16.20;99.90;;;;;;5090139;28;20787;-81
2021/08/09 05:28:58;;;;;;;4.60;2.22;;;16.50;99.90;;;;;;5071887;28;20867;-79
2021/08/09 05:31:25;;;;;;;4.35;2.00;;;16.90;99.90;;;;;;5071316;28;20388;-80
2021/08/09 05:33:51;;;;;;;4.00;2.40;;;17.10;99.90;;;;;;5090372;28;20392;-81
2021/08/09 05:36:17;;;;;;;3.63;2.55;;;17.10;99.90;;;;;;5089067;28;20384;-81
2021/08/09 05:38:43;;;;;;;5.93;2.78;;;17.20;99.90;;;;;;5088850;28;20404;-78
2021/08/09 05:41:08;;;;;;;3.75;2.50;;;17.20;99.90;;;;;;5088912;28;20508;-80
2021/08/09 05:43:34;;;;;;;4.57;2.77;;;17.20;99.90;;;;;;5086452;28;20447;-81
2021/08/09 05:45:59;;;;;;;2.80;2.10;;;17.20;99.90;;;;;;5071011;28;20391;-79
2021/08/09 05:48:25;;;;;;;3.37;2.47;;;17.20;99.90;;;;;;5089205;28;20434;-79
2021/08/09 05:50:51;;;;;;;3.85;2.47;;;17.20;99.90;;;;;;5088756;28;20463;-80
2021/08/09 05:53:16;;;;;;;4.70;2.50;;;17.10;99.90;;;;;;5087653;28;20439;-78
2021/08/09 05:55:42;;;;;;;4.32;2.38;;;17.00;99.90;;;;;;5088991;28;20376;-82
2021/08/09 05:58:07;;;;;;;3.60;2.40;;;16.90;99.90;;;;;;5088733;28;20460;-79
2021/08/09 06:00:33;;;;;;;4.25;2.58;;;17.00;99.90;;;;;;5088694;28;20368;-79
2021/08/09 06:03:00;;;;;;;5.07;2.55;;;16.90;99.90;;;;;;5089605;28;20399;-79
2021/08/09 06:05:26;;;;;;;4.78;2.40;;;17.00;99.90;;;;;;5089309;28;20384;-78
2021/08/09 06:07:52;;;;;;;4.63;2.47;;;17.00;99.90;;;;;;5071894;28;20404;-77
2021/08/09 06:10:19;;;;;;;4.67;2.37;;;17.00;99.90;;;;;;5071230;28;20431;-80
2021/08/09 06:12:44;;;;;;;4.75;2.80;;;17.10;99.90;;;;;;5088199;28;20412;-80
2021/08/09 06:15:10;;;;;;;4.30;2.60;;;17.10;99.90;;;;;;5088611;28;20445;-80
2021/08/09 06:17:36;;;;;;;3.97;2.53;;;17.20;99.90;;;;;;5088724;28;20380;-79
2021/08/09 06:20:03;;;;;;;3.80;2.40;;;17.30;99.90;;;;;;5088551;28;20382;-81
2021/08/09 06:22:29;;;;;;;3.03;2.30;;;17.30;99.90;;;;;;5072611;28;20487;-82
2021/08/09 06:24:55;;;;;;;4.50;2.50;;;17.40;99.90;;;;;;5070205;28;20463;-80
2021/08/09 06:27:21;;;;;;;3.42;2.15;;;17.50;99.90;;;;;;5070542;28;20396;-81
2021/08/09 06:29:47;;;;;;;4.37;2.30;;;17.70;99.90;;;;;;5069445;28;20376;-80
2021/08/09 06:32:13;;;;;;;3.95;1.90;;;17.90;99.90;;;;;;5088122;28;20403;-77
2021/08/09 06:34:38;;;;;;;4.40;2.20;;;18.10;99.90;;;;;;5088407;28;20503;-80
2021/08/09 06:37:04;;;;;;;5.00;2.20;;;18.20;99.90;;;;;;5088170;28;20909;-81
2021/08/09 06:39:29;;;;;;;4.50;2.00;;;18.60;99.90;;;;;;5088114;28;20372;-80
2021/08/09 06:41:57;;;;;;;4.30;2.28;;;18.80;99.90;;;;;;5089061;28;20372;-81
2021/08/09 06:44:23;;;;;;;3.40;2.15;;;18.90;99.90;;;;;;5088957;28;20378;-78
2021/08/09 06:46:49;;;;;;;4.10;2.13;;;19.00;99.90;;;;;;5088579;28;20468;-81
2021/08/09 06:49:15;;;;;;;3.78;2.00;;;19.10;99.90;;;;;;5088455;28;20776;-81
2021/08/09 06:51:40;;;;;;;4.80;2.17;;;19.30;99.90;;;;;;5089286;28;20480;-79
2021/08/09 06:54:06;;;;;;;3.45;2.03;;;19.40;99.90;;;;;;5086083;28;20403;-80
2021/08/09 06:56:31;;;;;;;4.17;2.17;;;19.50;99.90;;;;;;5086139;28;20425;-80
2021/08/09 06:58:57;;;;;;;3.08;1.90;;;19.50;99.90;;;;;;5087138;28;20376;-79
2021/08/09 07:01:23;;;;;;;3.63;1.90;;;19.50;99.90;;;;;;5088270;28;20420;-80
2021/08/09 07:03:49;;;;;;;5.78;2.00;;;19.60;99.90;;;;;;5069782;28;20399;-78
2021/08/09 07:06:20;;;;;;;4.43;2.10;;;19.80;99.90;;;;;;5088223;28;20942;-81
2021/08/09 07:08:46;;;;;;;3.65;2.00;;;20.10;99.90;;;;;;5087602;28;20526;-78
2021/08/09 07:11:11;;;;;;;4.07;1.90;;;20.30;99.90;;;;;;5088044;28;20471;-80
2021/08/09 07:13:37;;;;;;;3.92;1.90;;;20.60;99.90;;;;;;5087831;28;20728;-79
2021/08/09 07:16:03;;;;;;;5.63;2.07;;;20.80;99.90;;;;;;5087552;28;20821;-84
2021/08/09 07:18:28;;;;;;;5.15;2.10;;;20.90;99.90;;;;;;5068729;28;20384;-77
2021/08/09 07:20:54;;;;;;;4.07;1.90;;;21.00;99.90;;;;;;5066489;28;21076;-83
2021/08/09 07:23:19;;;;;;;4.70;1.97;;;21.10;99.90;;;;;;5088424;28;20723;-83
2021/08/09 07:25:45;;;;;;;3.85;2.17;;;21.20;99.90;;;;;;5087887;28;20380;-80
2021/08/09 07:28:11;;;;;;;4.22;2.08;;;21.30;99.90;;;;;;5086494;28;20537;-79
2021/08/09 07:30:36;;;;;;;2.83;1.53;;;21.40;99.90;;;;;;5088242;28;20875;-81
2021/08/09 07:33:02;;;;;;;3.80;2.05;;;21.40;99.90;;;;;;5070141;28;20411;-82
2021/08/09 07:35:27;;;;;;;3.50;1.70;;;21.40;99.90;;;;;;5087914;28;20389;-80
2021/08/09 07:37:53;;;;;;;4.50;2.00;;;21.40;99.90;;;;;;5069358;28;20381;-79
2021/08/09 07:40:19;;;;;;;8.02;2.45;;;21.40;99.90;;;;;;5087842;28;20477;-80
2021/08/09 07:42:45;;;;;;;7.95;2.50;;;21.50;99.90;;;;;;5090213;28;20379;-80
2021/08/09 07:45:10;;;;;;;3.77;1.80;;;21.50;99.90;;;;;;5073685;28;20380;-81
2021/08/09 07:47:36;;;;;;;4.13;1.80;;;21.60;99.90;;;;;;5090958;28;20380;-80
2021/08/09 07:50:03;;;;;;;4.00;1.60;;;21.60;99.90;;;;;;5091815;28;20365;-80
2021/08/09 07:52:28;;;;;;;4.00;1.88;;;21.40;99.90;;;;;;5092056;28;20406;-82
2021/08/09 07:54:55;;;;;;;4.07;1.70;;;21.50;99.90;;;;;;5091040;28;21689;-81
2021/08/09 07:57:21;;;;;;;7.10;1.95;;;21.40;99.90;;;;;;5073217;28;20388;-84
2021/08/09 07:59:47;;;;;;;3.35;2.10;;;21.40;99.90;;;;;;5091638;28;20369;-83
2021/08/09 08:02:13;;;;;;;5.38;1.88;;;21.60;99.90;;;;;;5091129;28;20546;-83
2021/08/09 08:04:42;;;;;;;3.35;1.83;;;21.60;99.90;;;;;;5091411;28;20939;-79
2021/08/09 08:07:08;;;;;;;4.07;1.88;;;21.60;99.90;;;;;;5091473;28;20369;-81
2021/08/09 08:09:35;;;;;;;6.27;2.07;;;21.50;99.90;;;;;;5091055;28;20452;-84
2021/08/09 08:12:01;;;;;;;5.18;1.90;;;21.50;99.90;;;;;;5072269;28;20384;-80
2021/08/09 08:14:28;;;;;;;3.38;2.00;;;21.40;99.90;;;;;;5071028;28;20494;-81
2021/08/09 08:16:54;;;;;;;4.85;1.80;;;21.20;99.90;;;;;;5072673;28;20900;-79
2021/08/09 08:19:20;;;;;;;4.40;2.03;;;21.10;99.90;;;;;;5090105;28;20380;-81
2021/08/09 08:21:45;;;;;;;3.97;1.95;;;21.00;99.90;;;;;;5090851;28;20433;-83
2021/08/09 08:24:11;;;;;;;3.97;1.80;;;21.10;99.90;;;;;;5072595;28;20890;-80
2021/08/09 08:26:36;;;;;;;5.95;2.38;;;21.30;99.90;;;;;;5090791;28;20388;-79
2021/08/09 08:29:02;;;;;;;2.97;1.92;;;21.50;99.90;;;;;;5090396;28;20417;-82
2021/08/09 08:31:28;;;;;;;5.07;1.87;;;21.60;99.90;;;;;;5091826;28;20364;-83
2021/08/09 08:33:53;;;;;;;4.75;1.90;;;21.60;99.90;;;;;;5090750;28;20388;-81
2021/08/09 08:36:19;;;;;;;2.33;1.70;;;21.60;99.90;;;;;;5090899;28;20380;-82
2021/08/09 08:38:44;;;;;;;6.63;2.30;;;21.70;99.90;;;;;;5091830;28;20357;-81
2021/08/09 08:41:10;;;;;;;3.50;1.70;;;21.70;99.90;;;;;;5111582;28;20705;-82
2021/08/09 08:43:36;;;;;;;10.00;2.40;;;21.80;99.90;;;;;;5112720;28;20478;-78
2021/08/09 08:46:09;;;;;;;3.77;1.80;;;21.80;99.90;;;;;;5111895;28;20886;-81
2021/08/09 08:48:36;;;;;;;3.72;2.00;;;21.90;99.90;;;;;;5110960;28;20374;-83
2021/08/09 08:51:02;;;;;;;5.20;2.00;;;21.80;99.90;;;;;;5108291;28;20385;-78
2021/08/09 08:53:32;;;;;;;5.10;1.87;;;21.80;99.90;;;;;;5091452;28;20460;-78
2021/08/09 08:55:59;;;;;;;4.37;1.53;;;21.90;99.90;;;;;;5069794;28;20416;-81
2021/08/09 08:58:24;;;;;;;94.03;8.80;;;21.90;99.90;;;;;;5090900;28;20372;-81
2021/08/09 09:00:51;;;;;;;6.05;2.30;;;22.20;99.90;;;;;;5091433;28;20466;-83
2021/08/09 09:03:18;;;;;;;6.10;2.13;;;22.30;99.90;;;;;;5092509;28;20372;-78
2021/08/09 09:06:01;;;;;;;4.53;2.00;;;22.60;99.90;;;;;;5073870;28;20451;-81
2021/08/09 09:08:43;;;;;;;5.80;2.30;;;22.90;99.90;;;;;;5091082;28;20387;-79
2021/08/09 09:11:37;;;;;;;4.43;1.80;;;23.00;99.90;;;;;;5074664;28;20384;-80
2021/08/09 09:14:04;;;;;;;5.88;1.75;;;23.10;99.90;;;;;;5090193;28;20529;-85
2021/08/09 09:16:43;;;;;;;6.47;2.20;;;23.30;99.90;;;;;;5090877;28;20372;-81
2021/08/09 09:19:08;;;;;;;3.60;2.13;;;23.60;99.90;;;;;;5070333;28;20388;-83
2021/08/09 09:21:36;;;;;;;3.95;2.22;;;23.60;99.90;;;;;;5090067;28;20396;-81
2021/08/09 09:24:10;;;;;;;5.45;1.80;;;23.60;99.90;;;;;;5090579;28;20376;-79
2021/08/09 09:26:37;;;;;;;4.35;2.00;;;23.50;99.90;;;;;;5090504;28;20426;-81
2021/08/09 09:29:08;;;;;;;5.65;2.20;;;23.50;99.90;;;;;;5089394;28;20394;-79
2021/08/09 09:31:34;;;;;;;6.70;2.30;;;23.60;99.90;;;;;;5092236;28;20383;-79
2021/08/09 09:34:03;;;;;;;3.53;2.03;;;23.70;99.90;;;;;;5090515;28;20412;-83
2021/08/09 09:36:43;;;;;;;5.78;1.90;;;23.80;99.90;;;;;;5071597;28;20387;-78
2021/08/09 09:39:30;;;;;;;4.32;1.90;;;23.80;99.90;;;;;;5090582;28;20400;-79
2021/08/09 09:41:58;;;;;;;5.28;1.90;;;23.90;99.90;;;;;;5090557;28;20475;-82
2021/08/09 09:44:30;;;;;;;6.55;2.00;;;24.00;99.90;;;;;;5091132;28;20722;-81
2021/08/09 09:47:25;;;;;;;11.20;2.63;;;24.20;99.90;;;;;;5091703;28;20417;-80
2021/08/09 09:49:52;;;;;;;5.22;1.80;;;;;;;;;;5082648;28;20855;-80
2021/08/09 09:52:37;;;;;;;6.80;2.15;;;;;;;;;;5074020;28;20362;-81
2021/08/09 09:55:04;;;;;;;11.07;2.72;;;;;;;;;;5070363;28;20366;-82
2021/08/09 09:57:30;;;;;;;5.13;2.08;;;;;;;;;;5070502;28;20419;-81
2021/08/09 09:59:58;;;;;;;5.32;1.75;;;;;;;;;;5051827;28;20778;-82
2021/08/09 10:02:24;;;;;;;10.20;2.22;;;;;;;;;;5065547;28;20448;-81
2021/08/09 10:04:51;;;;;;;5.35;1.90;;;;;;;;;;5090195;28;20513;-83
2021/08/09 10:07:19;;;;;;;8.63;2.13;;;;;;;;;;5072024;28;20429;-83
2021/08/09 10:09:48;;;;;;;4.47;1.70;;;;;;;;;;5089463;28;20381;-81
2021/08/09 10:12:14;;;;;;;4.38;1.90;;;;;;;;;;5071303;28;20419;-80
2021/08/09 10:14:40;;;;;;;6.27;2.20;;;;;;;;;;5090508;28;20464;-82
2021/08/09 10:17:07;;;;;;;8.23;2.30;;;;;;;;;;5090528;28;20726;-83
2021/08/09 10:19:33;;;;;;;6.72;2.00;;;;;;;;;;5088111;28;20389;-83
2021/08/09 10:21:59;;;;;;;4.47;1.95;;;;;;;;;;5089300;28;20924;-79
2021/08/09 10:24:37;;;;;;;5.30;2.13;;;25.30;99.90;;;;;;5070233;28;20440;-77
2021/08/09 10:27:03;;;;;;;5.95;1.90;;;25.20;99.90;;;;;;5068200;28;20739;-82
2021/08/09 10:29:29;;;;;;;4.10;1.63;;;25.20;99.90;;;;;;5088601;28;20379;-83
2021/08/09 10:32:18;;;;;;;5.20;2.00;;;25.20;99.90;;;;;;5088233;28;20383;-78
2021/08/09 10:34:44;;;;;;;4.50;1.88;;;25.20;99.90;;;;;;5088753;28;20764;-83
2021/08/09 10:37:11;;;;;;;5.17;2.20;;;24.90;99.90;;;;;;5070872;28;20400;-81
2021/08/09 10:39:57;;;;;;;5.60;1.90;;;24.70;99.90;;;;;;5088884;28;20480;-82
2021/08/09 10:42:46;;;;;;;6.50;2.17;;;24.80;99.90;;;;;;5089560;28;20381;-80
2021/08/09 10:45:45;;;;;;;4.68;1.60;;;24.70;99.90;;;;;;5087337;28;20432;-81
2021/08/09 10:48:13;;;;;;;4.40;1.63;;;24.70;99.90;;;;;;5070547;28;20415;-82
2021/08/09 10:50:40;;;;;;;4.63;1.80;;;;;;;;;;5088178;28;20384;-80
2021/08/09 10:53:24;;;;;;;4.53;1.80;;;;;;;;;;5088557;28;20488;-82
2021/08/09 10:55:54;;;;;;;3.47;2.03;;;;;;;;;;5087584;28;20371;-81
2021/08/09 10:58:39;;;;;;;6.37;2.13;;;;;;;;;;5070443;28;20445;-81
2021/08/09 11:01:05;;;;;;;5.32;2.20;;;;;;;;;;5086546;28;20738;-83
2021/08/09 11:03:30;;;;;;;6.07;1.83;;;25.20;99.70;;;;;;5089411;28;20361;-81
2021/08/09 11:05:56;;;;;;;9.18;2.20;;;25.30;99.90;;;;;;5089555;28;20409;-77
2021/08/09 11:08:25;;;;;;;4.43;1.90;;;;;;;;;;5088898;28;20682;-84
2021/08/09 11:11:03;;;;;;;4.97;1.80;;;;;;;;;;5089286;28;20408;-80
2021/08/09 11:13:30;;;;;;;6.88;2.05;;;;;;;;;;5087491;28;20758;-80
2021/08/09 11:16:05;;;;;;;6.45;2.00;;;;;;;;;;5089054;28;20402;-81
2021/08/09 11:18:34;;;;;;;5.07;1.85;;;;;;;;;;5070326;28;20854;-79
2021/08/09 11:21:05;;;;;;;4.32;1.83;;;;;;;;;;5073142;28;20471;-79
2021/08/09 11:23:41;;;;;;;12.75;2.65;;;;;;;;;;5090231;28;20369;-83
2021/08/09 11:26:07;;;;;;;5.15;2.10;;;;;;;;;;5092036;28;20364;-80
2021/08/09 11:28:33;;;;;;;4.60;1.60;;;;;;;;;;5092430;28;20776;-82
2021/08/09 11:31:02;;;;;;;3.75;1.70;;;;;;;;;;5088486;28;20421;-82
2021/08/09 11:33:28;;;;;;;8.18;2.10;;;;;;;;;;5091019;28;20400;-80
2021/08/09 11:36:00;;;;;;;4.83;1.70;;;;;;;;;;5093419;28;20418;-78
2021/08/09 11:38:27;;;;;;;4.05;1.88;;;;;;;;;;5092330;28;20377;-80
2021/08/09 11:40:54;;;;;;;4.53;2.22;;;;;;;;;;5074242;28;20376;-82
2021/08/09 11:43:30;;;;;;;6.38;1.98;;;;;;;;;;5092367;28;20369;-80
2021/08/09 11:46:00;;;;;;;2.92;1.80;;;;;;;;;;5072927;28;20817;-83
2021/08/09 11:48:28;;;;;;;5.63;2.00;;;;;;;;;;5091371;28;20368;-83
2021/08/09 11:50:55;;;;;;;8.98;2.10;;;;;;;;;;5091582;28;20459;-79
2021/08/09 11:53:21;;;;;;;5.90;2.00;;;;;;;;;;5090960;28;20404;-84
2021/08/09 11:55:47;;;;;;;5.97;1.73;;;;;;;;;;5087470;28;20361;-83
2021/08/09 11:58:28;;;;;;;5.00;2.08;;;;;;;;;;5090527;28;20467;-81
2021/08/09 12:00:54;;;;;;;5.75;2.10;;;;;;;;;;5088651;28;20792;-80
2021/08/09 12:03:21;;;;;;;5.53;2.13;;;;;;;;;;5069256;28;20380;-81
2021/08/09 12:05:47;;;;;;;2.90;1.50;;;;;;;;;;5090058;28;20463;-82
2021/08/09 12:08:13;;;;;;;3.75;1.67;;;;;;;;;;5090299;28;20960;-81
2021/08/09 12:10:40;;;;;;;5.43;1.75;;;;;;;;;;5089901;28;20861;-81
2021/08/09 12:13:25;;;;;;;6.70;1.98;;;;;;;;;;5089912;28;20453;-81
2021/08/09 12:16:09;;;;;;;4.93;1.67;;;;;;;;;;5089790;28;20392;-82
2021/08/09 12:18:36;;;;;;;5.63;1.77;;;;;;;;;;5089929;28;20469;-80
2021/08/09 12:21:13;;;;;;;4.60;1.70;;;;;;;;;;5088303;28;20388;-80
2021/08/09 12:23:54;;;;;;;5.18;1.90;;;;;;;;;;5089473;28;20387;-81
2021/08/09 12:26:22;;;;;;;3.87;1.70;;;;;;;;;;5088986;28;20404;-78
2021/08/09 12:28:53;;;;;;;3.30;1.67;;;;;;;;;;5070931;28;20380;-80
2021/08/09 12:31:32;;;;;;;4.47;1.80;;;;;;;;;;5089881;28;20858;-81
2021/08/09 12:33:59;;;;;;;3.47;1.80;;;;;;;;;;5087696;28;20412;-82
2021/08/09 12:36:25;;;;;;;3.63;1.92;;;;;;;;;;5089161;28;20494;-81
2021/08/09 12:38:51;;;;;;;4.20;1.80;;;;;;;;;;5082171;28;20389;-83
2021/08/09 12:41:28;;;;;;;4.13;1.70;;;;;;;;;;5087850;28;20460;-80
2021/08/09 12:43:54;;;;;;;3.53;1.60;;;;;;;;;;5068547;28;20364;-82
2021/08/09 12:46:21;;;;;;;4.38;1.90;;;;;;;;;;5085513;28;20377;-78
2021/08/09 12:48:47;;;;;;;3.13;1.65;;;;;;;;;;5083213;28;20374;-78
2021/08/09 12:51:13;;;;;;;3.97;1.75;;;;;;;;;;5087193;28;20430;-80
2021/08/09 12:53:39;;;;;;;4.15;1.90;;;;;;;;;;5070186;28;20921;-84
2021/08/09 12:56:05;;;;;;;2.83;1.77;;;;;;;;;;5069474;28;20739;-82
2021/08/09 12:58:31;;;;;;;3.83;1.77;;;;;;;;;;5088510;28;20494;-78
2021/08/09 13:00:58;;;;;;;5.15;2.17;;;;;;;;;;5084147;28;20417;-80
2021/08/09 13:03:24;;;;;;;3.85;1.77;;;;;;;;;;5088383;28;20569;-79
2021/08/09 13:05:50;;;;;;;4.80;2.13;;;;;;;;;;5068803;28;21051;-81
2021/08/09 13:08:16;;;;;;;5.57;1.92;;;;;;;;;;5069383;28;20893;-80
2021/08/09 13:10:42;;;;;;;4.70;1.90;;;;;;;;;;5088023;28;20385;-82
2021/08/09 13:13:08;;;;;;;4.43;1.90;;;;;;;;;;5070253;28;20767;-82
2021/08/09 13:15:34;;;;;;;6.72;2.20;;;;;;;;;;5073045;28;20388;-79